createdAt,value
2018-05-09T00:01:44.568Z,12.20
2018-05-09T00:04:12.125Z,12.00
2018-05-09T00:06:39.672Z,12.00
2018-05-09T00:09:07.999Z,11.80
2018-05-09T00:11:36.293Z,11.90
2018-05-09T00:14:03.887Z,11.80
2018-05-09T00:16:31.443Z,11.80
2018-05-09T00:18:58.975Z,11.80
2018-05-09T00:21:26.497Z,11.70
2018-05-09T00:23:54.054Z,11.70
2018-05-09T00:26:21.586Z,11.70
2018-05-09T00:28:49.882Z,11.60
2018-05-09T00:31:17.463Z,11.60
2018-05-09T00:36:35.591Z,11.50
2018-05-09T00:39:03.145Z,11.50
2018-05-09T00:41:31.433Z,11.40
2018-05-09T00:43:58.977Z,11.40
2018-05-09T00:46:26.502Z,11.40
2018-05-09T00:48:54.059Z,11.40
2018-05-09T00:51:21.581Z,11.40
2018-05-09T00:53:49.095Z,11.50
2018-05-09T00:56:16.623Z,11.50
2018-05-09T00:58:44.147Z,11.50
2018-05-09T01:01:11.693Z,11.50
2018-05-09T01:03:39.213Z,11.50
2018-05-09T01:06:06.739Z,11.40
2018-05-09T01:08:34.256Z,11.40
2018-05-09T01:11:01.797Z,11.30
2018-05-09T01:13:30.091Z,11.20
2018-05-09T01:15:57.625Z,11.20
2018-05-09T01:18:25.156Z,11.20
2018-05-09T01:20:52.722Z,11.20
2018-05-09T01:23:20.268Z,11.20
2018-05-09T01:25:47.851Z,11.10
2018-05-09T01:28:15.416Z,11.10
2018-05-09T01:30:42.957Z,11.20
2018-05-09T01:33:10.477Z,11.30
2018-05-09T01:35:38.017Z,11.30
2018-05-09T01:38:05.566Z,11.20
2018-05-09T01:40:33.116Z,11.10
2018-05-09T01:43:01.405Z,11.00
2018-05-09T01:45:28.948Z,11.00
2018-05-09T01:47:57.238Z,10.90
2018-05-09T01:50:24.785Z,10.90
2018-05-09T01:52:53.077Z,10.90
2018-05-09T01:55:20.641Z,10.90
2018-05-09T01:57:48.182Z,10.90
2018-05-09T02:00:15.705Z,10.80
2018-05-09T02:02:43.244Z,10.80
2018-05-09T02:05:11.151Z,10.80
2018-05-09T02:07:38.705Z,10.70
2018-05-09T02:10:07.013Z,10.70
2018-05-09T02:12:34.566Z,10.70
2018-05-09T02:15:02.107Z,10.60
2018-05-09T02:17:30.434Z,10.60
2018-05-09T02:19:57.957Z,10.60
2018-05-09T02:22:26.331Z,10.60
2018-05-09T02:24:53.855Z,10.60
2018-05-09T02:27:21.394Z,10.80
2018-05-09T02:29:48.922Z,10.70
2018-05-09T02:32:17.239Z,10.80
2018-05-09T02:34:44.783Z,10.80
2018-05-09T02:37:12.386Z,10.70
2018-05-09T02:39:39.913Z,10.80
2018-05-09T02:42:07.448Z,10.70
2018-05-09T02:44:35.232Z,10.70
2018-05-09T02:47:03.566Z,10.60
2018-05-09T02:49:31.080Z,10.60
2018-05-09T02:51:59.409Z,10.50
2018-05-09T02:54:26.924Z,10.50
2018-05-09T02:56:55.229Z,10.50
2018-05-09T02:59:22.751Z,10.50
2018-05-09T03:01:51.133Z,10.40
2018-05-09T03:04:19.426Z,10.40
2018-05-09T03:06:46.968Z,10.40
2018-05-09T03:09:15.261Z,10.50
2018-05-09T03:11:42.789Z,10.50
2018-05-09T03:14:10.329Z,10.50
2018-05-09T03:16:37.862Z,10.50
2018-05-09T03:19:05.396Z,10.40
2018-05-09T03:21:32.941Z,10.40
2018-05-09T03:24:00.484Z,10.40
2018-05-09T03:26:28.016Z,10.40
2018-05-09T03:28:55.553Z,10.40
2018-05-09T03:31:23.148Z,10.40
2018-05-09T03:33:50.787Z,10.50
2018-05-09T03:36:18.323Z,10.50
2018-05-09T03:38:45.871Z,10.50
2018-05-09T03:41:13.400Z,10.50
2018-05-09T03:43:40.941Z,10.60
2018-05-09T03:46:08.448Z,10.60
2018-05-09T03:48:35.993Z,10.70
2018-05-09T03:51:03.516Z,10.70
2018-05-09T03:53:31.068Z,10.70
2018-05-09T03:55:59.360Z,10.70
2018-05-09T03:58:26.887Z,10.70
2018-05-09T04:00:54.401Z,10.80
2018-05-09T04:03:35.224Z,10.80
2018-05-09T04:06:14.605Z,10.80
2018-05-09T04:08:53.914Z,10.90
2018-05-09T04:11:22.208Z,10.90
2018-05-09T04:13:49.777Z,10.90
2018-05-09T04:16:17.291Z,11.00
2018-05-09T04:18:44.833Z,11.00
2018-05-09T04:21:12.349Z,11.00
2018-05-09T04:23:39.893Z,11.00
2018-05-09T04:26:07.427Z,11.10
2018-05-09T04:28:34.990Z,11.20
2018-05-09T04:31:02.529Z,11.20
2018-05-09T04:33:30.058Z,11.30
2018-05-09T04:35:57.616Z,11.40
2018-05-09T04:38:25.134Z,11.50
2018-05-09T04:40:52.685Z,11.60
2018-05-09T04:43:20.977Z,12.30
2018-05-09T04:45:48.530Z,12.30
2018-05-09T04:48:16.061Z,12.40
2018-05-09T04:50:43.613Z,12.40
2018-05-09T04:53:11.157Z,12.40
2018-05-09T04:55:38.772Z,12.40
2018-05-09T04:58:06.242Z,12.60
2018-05-09T05:00:33.781Z,12.80
2018-05-09T05:03:01.304Z,12.90
2018-05-09T05:05:29.618Z,13.00
2018-05-09T05:07:58.008Z,12.90
2018-05-09T05:10:25.549Z,13.00
2018-05-09T05:12:53.077Z,13.20
2018-05-09T05:15:20.995Z,13.20
2018-05-09T05:17:48.518Z,13.40
2018-05-09T05:20:16.830Z,13.50
2018-05-09T05:22:44.357Z,13.50
2018-05-09T05:25:11.906Z,13.60
2018-05-09T05:27:39.429Z,13.80
2018-05-09T05:30:07.005Z,13.90
2018-05-09T05:32:35.291Z,14.10
2018-05-09T05:35:02.837Z,14.10
2018-05-09T05:37:30.357Z,14.20
2018-05-09T05:39:57.881Z,14.40
2018-05-09T05:42:25.412Z,14.50
2018-05-09T05:44:52.964Z,14.60
2018-05-09T05:47:20.500Z,14.70
2018-05-09T05:49:48.025Z,14.80
2018-05-09T05:52:15.577Z,15.00
2018-05-09T05:54:43.104Z,15.20
2018-05-09T05:57:11.420Z,15.40
2018-05-09T05:59:39.725Z,15.60
2018-05-09T06:02:07.279Z,15.50
2018-05-09T06:04:34.824Z,15.70
2018-05-09T06:07:02.394Z,15.80
2018-05-09T06:09:29.919Z,15.90
2018-05-09T06:11:57.457Z,16.00
2018-05-09T06:14:25.739Z,16.40
2018-05-09T06:16:53.272Z,16.40
2018-05-09T06:19:20.793Z,16.40
2018-05-09T06:21:48.351Z,16.60
2018-05-09T06:24:15.968Z,16.70
2018-05-09T06:26:43.445Z,16.90
2018-05-09T06:29:10.965Z,17.00
2018-05-09T06:31:38.521Z,17.10
2018-05-09T06:34:06.062Z,17.20
2018-05-09T06:36:33.608Z,17.40
2018-05-09T06:39:01.148Z,17.50
2018-05-09T06:41:28.693Z,17.60
2018-05-09T06:43:56.213Z,17.70
2018-05-09T06:46:24.533Z,18.00
2018-05-09T06:48:52.069Z,17.90
2018-05-09T06:51:19.597Z,18.10
2018-05-09T06:53:47.145Z,18.20
2018-05-09T06:56:14.691Z,18.40
2018-05-09T06:58:42.233Z,18.60
2018-05-09T07:01:09.755Z,18.70
2018-05-09T07:03:37.300Z,19.00
2018-05-09T07:06:04.938Z,19.20
2018-05-09T07:08:32.396Z,19.60
2018-05-09T07:10:59.946Z,20.30
2018-05-09T07:13:27.498Z,21.10
2018-05-09T07:15:55.038Z,23.50
2018-05-09T07:18:22.576Z,25.80
2018-05-09T07:20:50.101Z,28.10
2018-05-09T07:23:18.447Z,31.90
2018-05-09T07:25:45.954Z,31.80
2018-05-09T07:28:13.496Z,32.80
2018-05-09T07:30:41.807Z,32.60
2018-05-09T07:33:09.352Z,32.60
2018-05-09T07:35:36.891Z,33.50
2018-05-09T07:38:04.485Z,34.00
2018-05-09T07:40:32.012Z,35.00
2018-05-09T07:42:59.556Z,35.70
2018-05-09T07:45:27.098Z,36.30
2018-05-09T07:47:54.874Z,36.90
2018-05-09T07:50:22.232Z,37.50
2018-05-09T07:52:49.774Z,37.80
2018-05-09T07:55:17.308Z,38.20
2018-05-09T07:57:44.840Z,38.20
2018-05-09T08:00:12.361Z,38.30
2018-05-09T08:02:39.909Z,37.70
2018-05-09T08:05:07.449Z,37.30
2018-05-09T08:07:34.971Z,37.80
2018-05-09T08:10:02.520Z,38.80
2018-05-09T08:12:30.046Z,39.00
2018-05-09T08:14:57.599Z,39.20
2018-05-09T08:17:25.124Z,39.20
2018-05-09T08:19:52.660Z,39.60
2018-05-09T08:22:20.171Z,39.80
2018-05-09T08:24:47.729Z,40.30
2018-05-09T08:27:15.255Z,40.70
2018-05-09T08:29:42.798Z,41.00
2018-05-09T08:32:10.320Z,41.50
2018-05-09T08:34:38.619Z,42.10
2018-05-09T08:37:06.141Z,42.00
2018-05-09T08:39:33.675Z,42.00
2018-05-09T08:42:01.197Z,40.90
2018-05-09T08:44:28.736Z,40.00
2018-05-09T08:46:56.271Z,39.60
2018-05-09T08:49:23.866Z,39.50
2018-05-09T08:51:51.376Z,39.80
2018-05-09T08:54:18.926Z,39.50
2018-05-09T08:56:46.470Z,39.60
2018-05-09T08:59:14.051Z,39.40
2018-05-09T09:01:41.632Z,39.10
2018-05-09T09:04:09.942Z,38.70
2018-05-09T09:06:37.461Z,38.60
2018-05-09T09:09:05.016Z,38.40
2018-05-09T09:11:33.322Z,38.80
2018-05-09T09:14:00.897Z,38.80
2018-05-09T09:16:28.420Z,38.70
2018-05-09T09:18:55.949Z,38.70
2018-05-09T09:21:23.497Z,38.60
2018-05-09T09:23:51.018Z,38.90
2018-05-09T09:26:18.557Z,38.90
2018-05-09T09:28:46.093Z,38.80
2018-05-09T09:31:13.645Z,38.70
2018-05-09T09:33:41.166Z,38.30
2018-05-09T09:36:08.712Z,38.00
2018-05-09T09:38:36.241Z,38.00
2018-05-09T09:41:03.784Z,37.80
2018-05-09T09:43:32.089Z,37.50
2018-05-09T09:45:59.645Z,37.40
2018-05-09T09:48:27.164Z,37.20
2018-05-09T09:50:54.710Z,37.10
2018-05-09T09:53:22.236Z,37.20
2018-05-09T09:55:49.772Z,37.00
2018-05-09T09:58:17.297Z,36.80
2018-05-09T10:00:44.849Z,36.80
2018-05-09T10:03:12.375Z,36.90
2018-05-09T10:05:45.483Z,35.40
2018-05-09T10:08:15.582Z,35.00
2018-05-09T10:10:43.120Z,35.00
2018-05-09T10:13:10.657Z,33.90
2018-05-09T10:15:38.212Z,32.20
2018-05-09T10:18:05.778Z,31.30
2018-05-09T10:20:33.329Z,30.60
2018-05-09T10:23:00.854Z,30.40
2018-05-09T10:25:28.394Z,30.30
2018-05-09T10:27:55.923Z,30.20
2018-05-09T10:30:23.498Z,30.20
2018-05-09T10:32:51.316Z,30.20
2018-05-09T10:35:19.630Z,30.20
2018-05-09T10:37:47.244Z,30.20
2018-05-09T10:40:14.857Z,30.20
2018-05-09T10:42:42.437Z,30.30
2018-05-09T10:45:10.780Z,30.50
2018-05-09T10:47:38.329Z,30.50
2018-05-09T10:50:05.994Z,30.50
2018-05-09T10:52:33.527Z,30.40
2018-05-09T10:55:01.899Z,29.80
2018-05-09T10:57:30.263Z,29.40
2018-05-09T10:59:57.793Z,29.40
2018-05-09T11:02:25.356Z,29.00
2018-05-09T11:04:52.884Z,29.00
2018-05-09T11:07:20.423Z,29.20
2018-05-09T11:09:48.696Z,29.90
2018-05-09T11:12:17.010Z,30.30
2018-05-09T11:14:44.537Z,30.30
2018-05-09T11:17:12.090Z,30.90
2018-05-09T11:19:39.649Z,31.40
2018-05-09T11:22:08.336Z,32.00
2018-05-09T11:24:35.932Z,31.90
2018-05-09T11:27:04.202Z,30.70
2018-05-09T11:29:31.748Z,30.60
2018-05-09T11:31:59.308Z,29.80
2018-05-09T11:34:27.592Z,28.60
2018-05-09T11:36:55.898Z,28.70
2018-05-09T11:39:23.431Z,28.60
2018-05-09T11:41:50.978Z,28.90
2018-05-09T11:44:18.495Z,29.00
2018-05-09T11:46:46.055Z,29.20
2018-05-09T11:49:13.608Z,29.40
2018-05-09T11:51:41.905Z,29.40
2018-05-09T11:54:09.444Z,29.30
2018-05-09T11:56:37.743Z,29.30
2018-05-09T11:59:05.321Z,29.30
2018-05-09T12:01:32.869Z,29.50
2018-05-09T12:04:00.407Z,29.70
2018-05-09T12:06:27.961Z,29.60
2018-05-09T12:08:56.266Z,29.40
2018-05-09T12:11:23.820Z,29.30
2018-05-09T12:13:51.369Z,29.20
2018-05-09T12:16:18.895Z,29.10
2018-05-09T12:18:46.428Z,28.80
2018-05-09T12:21:13.948Z,29.00
2018-05-09T12:23:41.506Z,28.90
2018-05-09T12:26:09.050Z,29.00
2018-05-09T12:28:36.596Z,28.90
2018-05-09T12:31:04.894Z,29.40
2018-05-09T12:33:32.455Z,29.40
2018-05-09T12:35:59.977Z,29.70
2018-05-09T12:38:27.533Z,30.00
2018-05-09T12:40:55.066Z,30.20
2018-05-09T12:43:22.613Z,29.90
2018-05-09T12:45:50.155Z,29.80
2018-05-09T12:48:17.717Z,29.30
2018-05-09T12:50:45.242Z,28.90
2018-05-09T12:53:13.569Z,28.90
2018-05-09T12:55:41.092Z,28.80
2018-05-09T12:58:08.635Z,29.00
2018-05-09T13:00:36.175Z,29.10
2018-05-09T13:03:03.692Z,29.30
2018-05-09T13:05:31.257Z,29.20
2018-05-09T13:07:59.824Z,29.10
2018-05-09T13:10:27.393Z,29.10
2018-05-09T13:12:54.911Z,29.20
2018-05-09T13:15:22.461Z,29.20
2018-05-09T13:17:49.989Z,29.20
2018-05-09T13:20:17.533Z,29.20
2018-05-09T13:22:45.056Z,29.40
2018-05-09T13:25:12.588Z,29.40
2018-05-09T13:27:40.119Z,29.30
2018-05-09T13:30:07.666Z,29.10
2018-05-09T13:32:35.202Z,28.90
2018-05-09T13:35:02.755Z,28.60
2018-05-09T13:37:30.276Z,28.40
2018-05-09T13:39:57.955Z,28.20
2018-05-09T13:42:25.397Z,28.00
2018-05-09T13:44:52.941Z,27.80
2018-05-09T13:47:21.260Z,27.40
2018-05-09T13:49:48.808Z,27.40
2018-05-09T13:52:16.333Z,27.30
2018-05-09T13:54:43.881Z,27.00
2018-05-09T13:57:11.407Z,26.90
2018-05-09T13:59:38.961Z,26.80
2018-05-09T14:02:06.475Z,26.90
2018-05-09T14:04:34.785Z,27.10
2018-05-09T14:07:02.304Z,27.10
2018-05-09T14:09:29.856Z,27.10
2018-05-09T14:11:57.375Z,27.20
2018-05-09T14:14:24.916Z,27.40
2018-05-09T14:16:52.449Z,27.60
2018-05-09T14:19:19.985Z,27.90
2018-05-09T14:21:47.549Z,28.20
2018-05-09T14:24:15.863Z,28.60
2018-05-09T14:26:43.402Z,28.60
2018-05-09T14:29:11.693Z,28.70
2018-05-09T14:31:39.247Z,28.70
2018-05-09T14:34:06.781Z,28.50
2018-05-09T14:36:34.332Z,28.30
2018-05-09T14:39:01.852Z,28.10
2018-05-09T14:41:29.394Z,28.00
2018-05-09T14:43:56.930Z,28.00
2018-05-09T14:46:24.476Z,27.80
2018-05-09T14:48:52.017Z,27.50
2018-05-09T14:51:19.558Z,27.50
2018-05-09T14:53:47.092Z,27.40
2018-05-09T14:56:14.646Z,27.40
2018-05-09T14:58:42.176Z,27.30
2018-05-09T15:01:10.493Z,26.90
2018-05-09T15:03:38.204Z,26.80
2018-05-09T15:06:06.521Z,26.40
2018-05-09T15:08:34.089Z,26.30
2018-05-09T15:11:01.643Z,26.10
2018-05-09T15:13:29.191Z,26.10
2018-05-09T15:15:56.737Z,26.40
2018-05-09T15:18:24.253Z,26.50
2018-05-09T15:20:51.798Z,26.40
2018-05-09T15:23:19.338Z,26.10
2018-05-09T15:25:46.871Z,26.00
2018-05-09T15:28:14.425Z,25.90
2018-05-09T15:30:41.961Z,26.00
2018-05-09T15:33:10.266Z,26.30
2018-05-09T15:35:37.793Z,26.30
2018-05-09T15:38:05.423Z,26.40
2018-05-09T15:40:32.978Z,26.60
2018-05-09T15:43:00.533Z,26.80
2018-05-09T15:45:28.084Z,26.80
2018-05-09T15:47:55.634Z,26.80
2018-05-09T15:50:23.186Z,26.70
2018-05-09T15:52:50.737Z,26.70
2018-05-09T15:55:18.247Z,26.60
2018-05-09T15:57:45.785Z,26.60
2018-05-09T16:00:13.395Z,26.50
2018-05-09T16:02:40.937Z,26.70
2018-05-09T16:05:09.247Z,26.60
2018-05-09T16:07:36.785Z,26.60
2018-05-09T16:10:04.331Z,26.60
2018-05-09T16:12:31.884Z,26.80
2018-05-09T16:14:59.412Z,27.00
2018-05-09T16:17:26.951Z,27.00
2018-05-09T16:19:54.495Z,27.00
2018-05-09T16:22:22.137Z,27.00
2018-05-09T16:24:49.589Z,27.00
2018-05-09T16:27:17.134Z,26.90
2018-05-09T16:29:44.690Z,26.80
2018-05-09T16:32:12.241Z,26.80
2018-05-09T16:34:40.536Z,26.60
2018-05-09T16:37:08.096Z,26.60
2018-05-09T16:39:35.638Z,26.40
2018-05-09T16:42:03.172Z,26.20
2018-05-09T16:44:30.716Z,25.90
2018-05-09T16:46:58.263Z,25.70
2018-05-09T16:49:25.818Z,25.50
2018-05-09T16:51:53.357Z,25.30
2018-05-09T16:54:21.027Z,25.30
2018-05-09T16:56:48.563Z,25.10
2018-05-09T16:59:16.105Z,25.00
2018-05-09T17:01:44.418Z,24.90
2018-05-09T17:04:11.970Z,24.80
2018-05-09T17:06:39.496Z,24.80
2018-05-09T17:09:07.048Z,24.70
2018-05-09T17:11:34.578Z,24.70
2018-05-09T17:14:02.118Z,24.70
2018-05-09T17:16:29.641Z,24.60
2018-05-09T17:18:57.181Z,24.60
2018-05-09T17:21:36.365Z,24.70
2018-05-09T17:24:03.917Z,24.80
2018-05-09T17:26:31.445Z,24.90
2018-05-09T17:28:58.988Z,25.00
2018-05-09T17:31:26.652Z,25.10
2018-05-09T17:33:54.958Z,25.40
2018-05-09T17:36:22.485Z,25.30
2018-05-09T17:38:50.026Z,25.50
2018-05-09T17:41:17.549Z,25.50
2018-05-09T17:43:45.093Z,25.60
2018-05-09T17:46:12.603Z,25.60
2018-05-09T17:48:40.146Z,25.60
2018-05-09T17:51:07.674Z,25.40
2018-05-09T17:53:35.221Z,25.20
2018-05-09T17:56:02.745Z,24.90
2018-05-09T17:58:31.057Z,24.50
2018-05-09T18:00:58.585Z,24.50
2018-05-09T18:03:26.136Z,24.30
2018-05-09T18:05:53.680Z,24.00
2018-05-09T18:08:21.217Z,23.60
2018-05-09T18:10:48.767Z,23.40
2018-05-09T18:13:16.309Z,23.20
2018-05-09T18:15:43.855Z,22.90
2018-05-09T18:18:11.397Z,22.80
2018-05-09T18:20:38.949Z,22.60
2018-05-09T18:23:07.250Z,22.20
2018-05-09T18:25:34.800Z,22.20
2018-05-09T18:28:02.338Z,22.00
2018-05-09T18:30:30.657Z,21.80
2018-05-09T18:32:58.172Z,21.80
2018-05-09T18:35:26.468Z,21.60
2018-05-09T18:37:53.998Z,21.50
2018-05-09T18:40:21.541Z,21.40
2018-05-09T18:42:49.111Z,21.30
2018-05-09T18:45:16.643Z,21.20
2018-05-09T18:47:44.167Z,21.30
2018-05-09T18:50:11.709Z,21.40
2018-05-09T18:52:39.219Z,21.40
2018-05-09T18:55:06.756Z,21.30
2018-05-09T18:57:34.277Z,21.10
2018-05-09T19:00:02.581Z,20.70
2018-05-09T19:02:30.110Z,20.70
2018-05-09T19:04:58.422Z,20.30
2018-05-09T19:07:25.954Z,20.30
2018-05-09T19:09:53.509Z,20.20
2018-05-09T19:12:21.051Z,20.10
2018-05-09T19:14:48.579Z,20.10
2018-05-09T19:17:16.125Z,20.10
2018-05-09T19:19:43.718Z,20.10
2018-05-09T19:22:11.336Z,20.10
2018-05-09T19:24:38.893Z,20.10
2018-05-09T19:27:06.469Z,20.00
2018-05-09T19:29:34.001Z,19.90
2018-05-09T19:32:01.558Z,19.70
2018-05-09T19:34:29.122Z,19.70
2018-05-09T19:36:56.679Z,19.50
2018-05-09T19:39:24.204Z,19.40
2018-05-09T19:41:52.544Z,19.30
2018-05-09T19:44:20.107Z,19.20
2018-05-09T19:46:47.652Z,19.10
2018-05-09T19:49:15.181Z,19.00
2018-05-09T19:51:42.731Z,18.90
2018-05-09T19:54:10.264Z,18.80
2018-05-09T19:56:37.808Z,18.80
2018-05-09T19:59:05.326Z,18.70
2018-05-09T20:01:32.903Z,18.70
2018-05-09T20:04:00.465Z,18.80
2018-05-09T20:06:28.009Z,18.70
2018-05-09T20:08:55.546Z,18.70
2018-05-09T20:11:23.099Z,18.70
2018-05-09T20:13:50.659Z,18.70
2018-05-09T20:16:18.208Z,18.70
2018-05-09T20:18:45.740Z,18.70
2018-05-09T20:21:13.311Z,18.70
2018-05-09T20:23:41.712Z,18.80
2018-05-09T20:26:09.173Z,18.70
2018-05-09T20:28:36.724Z,18.70
2018-05-09T20:31:22.799Z,18.70
2018-05-09T20:33:52.369Z,18.70
2018-05-09T20:36:19.905Z,18.70
2018-05-09T20:38:47.455Z,18.60
2018-05-09T20:41:14.975Z,18.60
2018-05-09T20:43:42.527Z,18.70
2018-05-09T20:46:10.830Z,18.70
2018-05-09T20:48:38.381Z,18.70
2018-05-09T20:51:05.919Z,18.60
2018-05-09T20:53:35.340Z,18.40
2018-05-09T20:56:02.883Z,18.40
2018-05-09T20:58:31.189Z,18.30
2018-05-09T21:00:58.718Z,18.30
2018-05-09T21:03:27.048Z,18.30
2018-05-09T21:05:54.563Z,18.20
2018-05-09T21:08:22.104Z,18.20
2018-05-09T21:10:49.632Z,18.20
2018-05-09T21:13:17.992Z,18.30
2018-05-09T21:15:45.517Z,18.20
2018-05-09T21:18:13.146Z,18.20
2018-05-09T21:20:40.634Z,18.20
2018-05-09T21:23:08.176Z,18.20
2018-05-09T21:25:36.459Z,18.10
2018-05-09T21:28:04.002Z,18.10
2018-05-09T21:30:32.296Z,18.10
2018-05-09T21:32:59.840Z,18.00
2018-05-09T21:35:27.433Z,18.00
2018-05-09T21:37:55.692Z,17.80
2018-05-09T21:40:23.240Z,17.70
2018-05-09T21:42:50.778Z,17.70
2018-05-09T21:45:18.322Z,17.60
2018-05-09T21:47:45.861Z,17.60
2018-05-09T21:50:13.400Z,17.50
2018-05-09T21:52:40.937Z,17.40
2018-05-09T21:55:08.492Z,17.20
2018-05-09T21:57:36.025Z,17.10
2018-05-09T22:00:04.343Z,17.20
2018-05-09T22:02:32.635Z,17.10
2018-05-09T22:05:00.182Z,17.10
2018-05-09T22:07:27.705Z,17.20
2018-05-09T22:09:57.927Z,17.00
2018-05-09T22:12:25.463Z,16.90
2018-05-09T22:14:53.783Z,16.90
2018-05-09T22:17:21.308Z,16.90
2018-05-09T22:19:48.868Z,16.80
2018-05-09T22:22:16.488Z,16.90
2018-05-09T22:24:44.034Z,16.90
2018-05-09T22:27:11.624Z,17.00
2018-05-09T22:29:39.159Z,16.90
2018-05-09T22:32:06.685Z,16.80
2018-05-09T22:34:34.231Z,16.70
2018-05-09T22:37:01.768Z,16.70
2018-05-09T22:39:29.337Z,16.70
2018-05-09T22:41:56.859Z,16.70
2018-05-09T22:44:24.404Z,16.70
2018-05-09T22:46:51.942Z,16.70
2018-05-09T22:49:19.485Z,16.60
2018-05-09T22:51:47.020Z,16.70
2018-05-09T22:54:14.628Z,16.80
2018-05-09T22:56:42.125Z,16.90
2018-05-09T22:59:09.648Z,16.90
2018-05-09T23:01:37.198Z,16.90
2018-05-09T23:04:04.716Z,16.90
2018-05-09T23:06:33.025Z,16.90
2018-05-09T23:09:00.567Z,16.80
2018-05-09T23:11:28.119Z,16.80
2018-05-09T23:13:56.412Z,16.80
2018-05-09T23:16:23.965Z,16.80
2018-05-09T23:18:51.501Z,16.90
2018-05-09T23:21:19.832Z,17.00
2018-05-09T23:23:47.368Z,16.90
2018-05-09T23:26:15.690Z,17.10
2018-05-09T23:28:43.226Z,17.10
2018-05-09T23:31:10.761Z,17.10
2018-05-09T23:33:38.288Z,17.10
2018-05-09T23:36:05.841Z,17.00
2018-05-09T23:38:35.066Z,16.90
2018-05-09T23:41:02.614Z,16.80
2018-05-09T23:43:30.145Z,16.70
2018-05-09T23:45:57.701Z,16.80
2018-05-09T23:48:26.008Z,16.70
2018-05-09T23:50:53.562Z,16.70
2018-05-09T23:53:21.091Z,16.70
2018-05-09T23:55:48.733Z,16.70
2018-05-09T23:58:16.960Z,16.70
